Triathlon des Moines - Fourmies 2020

Epreuve sélectionnée:


Triathlon S Open - Résultats Scratch

Filtre:

Partants Général Top 5



Recherche:

N° dossard
Nom
Club
Triathlon S Open - Classement arrivée
Clt Athlète Nat. Club Temps Sexe Cat Swim T1 Bike T2 Run
19 107 CHATELUS Sebastien 01:07:22 M (19e) Master (7e) 00:10:37 (27e) 00:01:23 (35e) 00:33:04 (11e) 00:01:06 (32e) 00:21:14 (26e) Partagez votre performance
31 121 ANTONIO Remi 01:11:46 M (30e) Senior (20e) 00:11:58 (42e) 00:01:22 (34e) 00:35:32 (26e) 00:01:04 (28e) 00:21:53 (32e) Partagez votre performance
42 98 BRZEZINSKI Vincent 01:15:44 M (36e) Master (15e) 00:11:55 (40e) 00:01:58 (59e) 00:39:09 (52e) 00:01:34 (67e) 00:21:10 (25e) Partagez votre performance
45 105 CANNY Jérôme 01:17:00 M (38e) Master (16e) 00:11:55 (39e) 00:02:14 (78e) 00:37:37 (43e) 00:01:33 (65e) 00:23:44 (57e) Partagez votre performance
53 116 PICHENOT Guillaume 01:18:57 M (43e) Senior (26e) 00:12:11 (50e) 00:03:05 (100e) 00:39:13 (55e) 00:01:20 (50e) 00:23:09 (49e) Partagez votre performance
55 119 GREGOIRE Rémi 01:20:18 M (45e) Senior (27e) 00:12:20 (54e) 00:02:22 (84e) 00:42:30 (75e) 00:01:38 (70e) 00:21:29 (30e) Partagez votre performance
57 113 DI LULLO Leo 01:21:17 M (47e) Senior (28e) 00:12:29 (57e) 00:01:49 (53e) 00:37:23 (39e) 00:01:08 (37e) 00:28:31 (92e) Partagez votre performance
58 106 TOURNEUX Benoit 01:21:22 M (48e) Master (20e) 00:14:11 (74e) 00:02:02 (61e) 00:38:12 (48e) 00:01:38 (71e) 00:25:22 (68e) Partagez votre performance
63 108 ADANT Jean 01:22:26 M (51e) Master (23e) 00:15:31 (86e) 00:03:49 (104e) 00:38:03 (45e) 00:01:58 (92e) 00:23:07 (48e) Partagez votre performance
67 40 GRARDEL Pauline 01:23:14 F (13e) Senior (9e) 00:15:22 (82e) 00:02:11 (74e) 00:42:23 (74e) 00:01:13 (45e) 00:22:07 (35e) Partagez votre performance
68 99 RITZMANN Pascal 01:24:20 M (55e) Master (27e) 00:12:40 (58e) 00:01:21 (33e) 00:41:49 (69e) 00:01:30 (59e) 00:27:02 (82e) Partagez votre performance
70 122 DEMARQUE Travis 01:24:29 M (57e) Senior (29e) 00:15:56 (89e) 00:02:14 (79e) 00:40:47 (64e) 00:01:33 (66e) 00:24:01 (61e) Partagez votre performance
71 36 PAGANO Laura 01:24:31 F (14e) Senior (10e) 00:15:24 (83e) 00:01:55 (56e) 00:41:10 (67e) 00:01:43 (76e) 00:24:22 (62e) Partagez votre performance
76 115 MICHOT Julien 01:27:25 M (61e) Senior (32e) 00:13:37 (67e) 00:02:59 (99e) 00:41:57 (70e) 00:01:37 (69e) 00:27:17 (85e) Partagez votre performance
77 95 ANDRE Christophe 01:27:32 M (62e) Master (30e) 00:14:20 (76e) 00:02:40 (92e) 00:41:04 (66e) 00:02:07 (94e) 00:27:22 (87e) Partagez votre performance
80 111 DENOYELLE Adrien 01:27:58 M (63e) Senior (33e) 00:16:18 (91e) 00:01:43 (49e) 00:41:02 (65e) 00:02:12 (98e) 00:26:44 (80e) Partagez votre performance
81 97 GUERY Jean-pierre 01:29:44 M (64e) Master (31e) 00:17:37 (96e) 00:02:10 (73e) 00:42:49 (78e) 00:02:08 (96e) 00:25:02 (65e) Partagez votre performance
84 114 HADDAD Nasser 01:31:31 M (65e) Senior (34e) 00:18:19 (102e) 00:01:43 (48e) 00:42:40 (77e) 00:01:43 (77e) 00:27:06 (83e) Partagez votre performance
85 29 MORSIAU Veronique 01:31:37 F (20e) Master (7e) 00:13:48 (73e) 00:02:18 (81e) 00:45:06 (89e) 00:02:01 (93e) 00:28:26 (91e) Partagez votre performance
86 43 FRASS Camille 01:31:56 F (21e) Senior (14e) 00:13:47 (72e) 00:02:23 (85e) 00:44:56 (88e) 00:01:54 (90e) 00:28:58 (94e) Partagez votre performance
88 28 BURIE Emmanuelle 01:32:35 F (23e) Master (9e) 00:17:40 (97e) 00:03:23 (102e) 00:43:38 (82e) 00:02:26 (104e) 00:25:30 (71e) Partagez votre performance
93 117 LECAILLE Alexandre 01:35:01 M (66e) Senior (35e) 00:17:02 (92e) 00:02:49 (95e) 00:46:28 (93e) 00:01:31 (62e) 00:27:13 (84e) Partagez votre performance
95 123 MOREL Ronan 01:35:43 M (67e) Senior (36e) 00:13:38 (68e) 00:04:39 (105e) 00:51:37 (101e) 00:01:57 (91e) 00:23:54 (59e) Partagez votre performance
100 30 T’SERVRANCX Dorothée 01:43:52 F (33e) Master (17e) 00:17:46 (99e) 00:02:58 (98e) 00:53:13 (103e) 00:01:11 (42e) 00:28:45 (93e) Partagez votre performance
101 44 FRABEL Lola 01:45:18 F (34e) Senior (17e) 00:17:20 (95e) 00:03:19 (101e) 00:51:33 (100e) 00:01:48 (86e) 00:31:20 (101e) Partagez votre performance
103 41 DEREGNAUCOURT Hélène 01:46:09 F (36e) Senior (19e) 00:20:43 (104e) 00:02:38 (88e) 00:55:09 (104e) 00:01:33 (64e) 00:26:09 (77e) Partagez votre performance
104 102 FOSSATI Bruno 00:00:00 M (68e) Master (32e) 00:17:47 (100e) 00:02:10 (72e) 00:58:05 (105e) 00:01:52 (88e) 00:00:00 (0) Partagez votre performance
105 25 LEDENT Christine 00:00:00 F (37e) Master (18e) 00:22:04 (105e) 00:03:39 (103e) 00:52:22 (102e) 00:01:48 (83e) 00:00:00 (0) Partagez votre performance


Triathlon S Open - Attente 1er pointage
Clt Athlète Nat. Club Temps Sexe Cat Swim T1 Bike T2 Run
DNS 109 VALLÉE Stéphane 00:00:00 M (0) Master (0) 00:00:00 (0) 00:00:00 (0) 00:00:00 (0) 00:00:00 (0) 00:00:00 (0)


Triathlon S Open - Non classé
Clt Athlète Nat. Club Temps Sexe Cat Swim T1 Bike T2 Run
DNS 42 ALEXANDRE Emmanuelle 00:00:00 F (0) Senior (0) 00:00:00 (0) 00:00:00 (0) 00:00:00 (0) 00:00:00 (0) 00:00:00 (0)
DNS 118 BRESSEL Maxime 00:00:00 M (0) Senior (0) 00:00:00 (0) 00:00:00 (0) 00:00:00 (0) 00:00:00 (0) 00:00:00 (0)
DNS 31 BRZEZINSKI Sonia 00:00:00 F (0) Master (0) 00:00:00 (0) 00:00:00 (0) 00:00:00 (0) 00:00:00 (0) 00:00:00 (0)
DNS 120 CARASSUS Hugo 00:00:00 M (0) Senior (0) 00:00:00 (0) 00:00:00 (0) 00:00:00 (0) 00:00:00 (0) 00:00:00 (0)
DNS 37 COMMELIN Elsa 00:00:00 F (0) Senior (0) 00:00:00 (0) 00:00:00 (0) 00:00:00 (0) 00:00:00 (0) 00:00:00 (0)
DNS 26 DECOTTIGNIES Isabelle 00:00:00 F (0) Master (0) 00:00:00 (0) 00:00:00 (0) 00:00:00 (0) 00:00:00 (0) 00:00:00 (0)
DNS 33 LEBRUN Caroline 00:00:00 F (0) Master (0) 00:00:00 (0) 00:00:00 (0) 00:00:00 (0) 00:00:00 (0) 00:00:00 (0)
DNS 103 VANDERHAEGEN Regis 00:00:00 M (0) Master (0) 00:00:00 (0) 00:00:00 (0) 00:00:00 (0) 00:00:00 (0) 00:00:00 (0)
DNS 104 VERLAINE Fabian 00:00:00 M (0) Master (0) 00:00:00 (0) 00:00:00 (0) 00:00:00 (0) 00:00:00 (0) 00:00:00 (0)
DNS 39 WILLEMS Stéphanie 00:00:00 F (0) Senior (0) 00:00:00 (0) 00:00:00 (0) 00:00:00 (0) 00:00:00 (0) 00:00:00 (0)


Triathlon S Open - Classement arrivée
Clt Athlète Nat. Club Temps Sexe Cat Swim T1 Bike T2 Run
56 46 VERHAEGHE Didier ATHLETIC CLUB MARCQUOIS 01:20:46 M (46e) Master (19e) 00:13:36 (66e) 00:02:21 (83e) 00:40:15 (61e) 00:01:30 (60e) 00:23:05 (47e) Partagez votre performance
7 57 BOURLET Mathieu BEAUVAIS TRIATHLON 01:01:17 M (7e) Senior (4e) 00:09:16 (11e) 00:00:54 (9e) 00:31:46 (6e) 00:00:59 (24e) 00:18:23 (8e) Partagez votre performance
14 51 DEWANCKELE Matthieu BEAUVAIS TRIATHLON 01:03:50 M (14e) Master (5e) 00:09:19 (13e) 00:00:54 (10e) 00:34:14 (20e) 00:00:53 (12e) 00:18:32 (10e) Partagez votre performance
15 56 SYS Pierre BEAUVAIS TRIATHLON 01:04:23 M (15e) Senior (10e) 00:09:43 (17e) 00:01:00 (16e) 00:33:40 (15e) 00:00:56 (21e) 00:19:06 (14e) Partagez votre performance
17 59 VOTTE Antoine BEAUVAIS TRIATHLON 01:06:30 M (17e) Senior (11e) 00:08:46 (6e) 00:01:20 (31e) 00:34:05 (16e) 00:00:52 (11e) 00:21:28 (29e) Partagez votre performance
21 58 BEAREE Antoine BEAUVAIS TRIATHLON 01:08:15 M (21e) Senior (14e) 00:10:31 (25e) 00:01:35 (42e) 00:35:14 (24e) 00:01:07 (34e) 00:19:50 (18e) Partagez votre performance
26 48 WALLOIS Arnold BEAUVAIS TRIATHLON 01:10:29 M (25e) Master (8e) 00:11:30 (33e) 00:01:44 (51e) 00:35:37 (28e) 00:01:15 (46e) 00:20:24 (23e) Partagez votre performance
29 55 CARPENTIER Julien BEAUVAIS TRIATHLON 01:11:22 M (28e) Senior (19e) 00:11:41 (34e) 00:01:33 (41e) 00:36:28 (35e) 00:01:35 (68e) 00:20:06 (20e) Partagez votre performance
30 54 EL OUAFI Kamal BEAUVAIS TRIATHLON 01:11:43 M (29e) Master (10e) 00:12:03 (46e) 00:01:56 (58e) 00:35:36 (27e) 00:01:50 (87e) 00:20:20 (22e) Partagez votre performance
33 47 BUREAU Frédéric BEAUVAIS TRIATHLON 01:11:58 M (31e) Master (11e) 00:11:13 (31e) 00:01:48 (52e) 00:34:58 (23e) 00:01:18 (48e) 00:22:44 (43e) Partagez votre performance
36 49 CAZIER Gaël BEAUVAIS TRIATHLON 01:12:57 M (33e) Master (12e) 00:11:48 (36e) 00:01:16 (29e) 00:36:31 (36e) 00:01:02 (25e) 00:22:21 (38e) Partagez votre performance
41 53 FERNANDES Nuno BEAUVAIS TRIATHLON 01:15:36